< < Back
Terminal Aerodrome Forecast


Current Version              Previous Versions:   1  2  3  4  5  6  7  8  9  

Terminal Aerodrome Forecast

636
FTUS44 KBMX 202300
TAFBHM
TAF
KBHM 202334Z 2100/2124 00000KT P6SM SKC=

Latest METAR

855
SAUS70 KWBC 210200 RRM
MTRBHM
METAR KBHM 210153Z 00000KT 10SM CLR 22/18 A3005 RMK AO2 SLP167
T02220183


USA.gov is the U.S. government's official web portal to all federal, state and local government web resources and services.